createdAt,value
2019-02-25T00:00:03.170Z,58.51
2019-02-25T00:01:03.162Z,59.24
2019-02-25T00:02:03.135Z,59.91
2019-02-25T00:03:03.101Z,60.57
2019-02-25T00:04:03.079Z,60.57
2019-02-25T00:05:03.066Z,61.14
2019-02-25T00:06:03.047Z,61.52
2019-02-25T00:07:03.049Z,62.46
2019-02-25T00:08:03.022Z,62.08
2019-02-25T00:09:02.989Z,61.80
2019-02-25T00:10:02.991Z,61.23
2019-02-25T00:11:02.957Z,60.85
2019-02-25T00:12:02.930Z,61.14
2019-02-25T00:13:02.905Z,61.61
2019-02-25T00:14:02.890Z,60.95
2019-02-25T00:15:02.882Z,60.47
2019-02-25T00:16:02.844Z,59.93
2019-02-25T00:17:02.840Z,59.55
2019-02-25T00:18:02.799Z,59.46
2019-02-25T00:19:02.785Z,59.55
2019-02-25T00:20:02.767Z,60.31
2019-02-25T00:21:02.744Z,60.22
2019-02-25T00:22:02.727Z,60.60
2019-02-25T00:23:02.722Z,61.83
2019-02-25T00:24:02.688Z,63.32
2019-02-25T00:25:02.687Z,63.89
2019-02-25T00:26:02.649Z,63.89
2019-02-25T00:27:02.625Z,62.94
2019-02-25T00:28:02.607Z,62.27
2019-02-25T00:29:02.584Z,62.56
2019-02-25T00:30:02.573Z,63.13
2019-02-25T00:31:02.559Z,63.98
2019-02-25T00:32:02.534Z,64.17
2019-02-25T00:33:02.513Z,64.75
2019-02-25T00:34:02.486Z,64.27
2019-02-25T00:35:02.469Z,63.13
2019-02-25T00:36:02.477Z,63.13
2019-02-25T00:37:02.440Z,63.42
2019-02-25T00:38:02.485Z,63.67
2019-02-25T00:39:02.443Z,64.33
2019-02-25T00:40:02.369Z,65.19
2019-02-25T00:41:02.347Z,65.00
2019-02-25T00:42:02.326Z,64.33
2019-02-25T00:43:02.323Z,64.43
2019-02-25T00:44:02.284Z,63.39
2019-02-25T00:45:02.264Z,64.62
2019-02-25T00:46:02.240Z,65.19
2019-02-25T00:47:02.222Z,65.00
2019-02-25T00:48:02.216Z,65.47
2019-02-25T00:49:02.185Z,65.56
2019-02-25T00:50:02.165Z,65.09
2019-02-25T00:51:02.143Z,65.47
2019-02-25T00:52:02.121Z,65.95
2019-02-25T00:53:02.112Z,66.04
2019-02-25T00:54:02.099Z,65.75
2019-02-25T00:55:02.066Z,67.75
2019-02-25T00:56:02.039Z,69.93
2019-02-25T00:57:02.020Z,70.03
2019-02-25T00:58:02.000Z,70.03
2019-02-25T00:59:01.998Z,69.08
2019-02-25T01:00:01.974Z,68.60
2019-02-25T01:01:01.945Z,67.90
2019-02-25T01:02:01.920Z,67.08
2019-02-25T01:03:02.655Z,66.20
2019-02-25T01:04:01.895Z,66.01
2019-02-25T01:05:01.875Z,65.16
2019-02-25T01:06:01.857Z,64.59
2019-02-25T01:07:01.814Z,66.96
2019-02-25T01:08:01.791Z,68.19
2019-02-25T01:09:01.778Z,69.27
2019-02-25T01:10:01.754Z,68.76
2019-02-25T01:11:02.619Z,68.38
2019-02-25T01:12:01.725Z,66.89
2019-02-25T01:13:01.690Z,65.72
2019-02-25T01:14:01.675Z,65.34
2019-02-25T01:15:01.649Z,65.72
2019-02-25T01:16:01.629Z,65.63
2019-02-25T01:17:01.627Z,67.24
2019-02-25T01:18:01.593Z,67.33
2019-02-25T01:19:01.588Z,68.19
2019-02-25T01:20:01.548Z,67.33
2019-02-25T01:21:01.531Z,68.29
2019-02-25T01:22:01.520Z,67.33
2019-02-25T01:23:01.488Z,66.58
2019-02-25T01:24:01.466Z,66.20
2019-02-25T01:25:01.442Z,66.20
2019-02-25T01:26:01.427Z,67.71
2019-02-25T01:27:01.418Z,69.04
2019-02-25T01:28:01.396Z,69.80
2019-02-25T01:29:03.122Z,71.41
2019-02-25T01:30:01.338Z,71.89
2019-02-25T01:31:01.322Z,72.55
2019-02-25T01:32:01.292Z,73.03
2019-02-25T01:33:01.295Z,72.45
2019-02-25T01:34:01.258Z,71.13
2019-02-25T01:35:01.251Z,70.18
2019-02-25T01:36:01.216Z,70.05
2019-02-25T01:37:01.192Z,69.77
2019-02-25T01:38:01.170Z,69.57
2019-02-25T01:39:01.158Z,70.09
2019-02-25T01:40:03.625Z,71.19
2019-02-25T01:41:01.128Z,72.52
2019-02-25T01:42:01.088Z,72.99
2019-02-25T01:43:01.069Z,73.46
2019-02-25T01:44:01.057Z,74.03
2019-02-25T01:45:01.043Z,73.65
2019-02-25T01:46:01.081Z,73.46
2019-02-25T01:47:00.998Z,73.08
2019-02-25T01:48:00.967Z,71.76
2019-02-25T01:49:00.980Z,71.28
2019-02-25T01:50:00.924Z,70.72
2019-02-25T01:51:00.930Z,70.05
2019-02-25T01:52:00.897Z,69.96
2019-02-25T01:53:00.863Z,69.77
2019-02-25T01:54:00.844Z,70.34
2019-02-25T01:55:00.824Z,71.47
2019-02-25T01:56:00.797Z,72.61
2019-02-25T01:57:00.770Z,73.60
2019-02-25T01:58:00.772Z,73.22
2019-02-25T01:59:00.741Z,72.52
2019-02-25T02:00:00.717Z,71.57
2019-02-25T02:01:00.696Z,70.65
2019-02-25T02:02:00.695Z,69.80
2019-02-25T02:03:00.653Z,69.13
2019-02-25T02:04:00.642Z,68.85
2019-02-25T02:05:00.610Z,69.13
2019-02-25T02:06:01.149Z,69.90
2019-02-25T02:07:00.584Z,70.84
2019-02-25T02:08:00.561Z,71.13
2019-02-25T02:09:00.543Z,69.71
2019-02-25T02:10:00.505Z,66.23
2019-02-25T02:11:00.488Z,63.70
2019-02-25T02:12:00.467Z,61.71
2019-02-25T02:13:00.449Z,60.69
2019-02-25T02:14:00.430Z,58.41
2019-02-25T02:15:00.421Z,56.83
2019-02-25T02:16:00.386Z,55.30
2019-02-25T02:17:00.365Z,53.88
2019-02-25T02:18:00.339Z,52.74
2019-02-25T02:19:00.318Z,50.39
2019-02-25T02:20:00.317Z,49.08
2019-02-25T02:21:00.284Z,48.03
2019-02-25T02:22:00.251Z,46.80
2019-02-25T02:23:00.230Z,46.04
2019-02-25T02:24:00.218Z,45.49
2019-02-25T02:25:00.226Z,45.78
2019-02-25T02:26:00.169Z,45.56
2019-02-25T02:27:00.165Z,45.66
2019-02-25T02:28:00.133Z,45.37
2019-02-25T02:29:00.108Z,45.18
2019-02-25T02:30:00.187Z,44.71
2019-02-25T02:31:00.068Z,44.33
2019-02-25T02:32:00.063Z,44.64
2019-02-25T02:33:00.026Z,44.33
2019-02-25T02:34:00.010Z,44.42
2019-02-25T02:34:59.988Z,44.80
2019-02-25T02:35:59.984Z,44.73
2019-02-25T02:36:59.946Z,44.80
2019-02-25T02:38:00.672Z,44.61
2019-02-25T02:38:59.903Z,44.71
2019-02-25T02:39:59.884Z,44.42
2019-02-25T02:40:59.884Z,44.23
2019-02-25T02:41:59.846Z,43.85
2019-02-25T02:42:59.826Z,44.06
2019-02-25T02:43:59.807Z,43.40
2019-02-25T02:44:59.791Z,43.21
2019-02-25T02:45:59.763Z,43.30
2019-02-25T02:46:59.767Z,43.21
2019-02-25T02:47:59.722Z,42.83
2019-02-25T02:48:59.706Z,43.21
2019-02-25T02:49:59.683Z,43.11
2019-02-25T02:50:59.673Z,43.21
2019-02-25T02:51:59.661Z,43.02
2019-02-25T02:52:59.621Z,43.57
2019-02-25T02:53:59.602Z,43.38
2019-02-25T02:54:59.582Z,43.09
2019-02-25T02:55:59.564Z,43.19
2019-02-25T02:56:59.540Z,43.09
2019-02-25T02:57:59.539Z,42.80
2019-02-25T02:58:59.496Z,43.57
2019-02-25T02:59:59.478Z,43.66
2019-02-25T03:00:59.459Z,44.23
2019-02-25T03:01:59.444Z,43.57
2019-02-25T03:02:59.435Z,44.13
2019-02-25T03:03:59.400Z,44.13
2019-02-25T03:04:59.394Z,44.04
2019-02-25T03:05:59.357Z,44.52
2019-02-25T03:06:59.339Z,44.52
2019-02-25T03:07:59.345Z,44.71
2019-02-25T03:08:59.317Z,45.18
2019-02-25T03:09:59.280Z,45.09
2019-02-25T03:10:59.261Z,45.28
2019-02-25T03:11:59.239Z,45.09
2019-02-25T03:12:59.216Z,45.47
2019-02-25T03:13:59.217Z,45.85
2019-02-25T03:14:59.176Z,45.66
2019-02-25T03:15:59.161Z,46.14
2019-02-25T03:17:01.136Z,46.14
2019-02-25T03:17:59.122Z,46.61
2019-02-25T03:18:59.114Z,46.70
2019-02-25T03:19:59.090Z,48.11
2019-02-25T03:20:59.063Z,48.77
2019-02-25T03:21:59.038Z,48.77
2019-02-25T03:22:59.017Z,48.68
2019-02-25T03:23:59.002Z,48.30
2019-02-25T03:24:58.998Z,48.11
2019-02-25T03:25:58.959Z,48.68
2019-02-25T03:26:58.953Z,48.96
2019-02-25T03:27:58.933Z,49.06
2019-02-25T03:28:58.896Z,49.51
2019-02-25T03:29:58.875Z,48.66
2019-02-25T03:30:58.873Z,48.75
2019-02-25T03:31:58.843Z,48.66
2019-02-25T03:32:58.821Z,48.85
2019-02-25T03:33:58.796Z,49.13
2019-02-25T03:34:58.778Z,49.98
2019-02-25T03:35:58.757Z,49.89
2019-02-25T03:36:58.752Z,49.51
2019-02-25T03:37:58.714Z,49.60
2019-02-25T03:38:58.696Z,50.27
2019-02-25T03:39:58.682Z,51.03
2019-02-25T03:40:58.657Z,51.03
2019-02-25T03:41:59.157Z,50.18
2019-02-25T03:42:58.671Z,50.74
2019-02-25T03:43:58.594Z,52.24
2019-02-25T03:44:58.579Z,52.62
2019-02-25T03:45:58.555Z,54.05
2019-02-25T03:46:58.557Z,55.18
2019-02-25T03:47:58.513Z,56.01
2019-02-25T03:48:58.507Z,57.15
2019-02-25T03:49:59.151Z,57.15
2019-02-25T03:50:58.452Z,57.53
2019-02-25T03:51:58.430Z,58.39
2019-02-25T03:52:58.430Z,59.14
2019-02-25T03:53:58.408Z,59.33
2019-02-25T03:54:58.375Z,59.30
2019-02-25T03:55:59.142Z,60.35
2019-02-25T03:56:58.332Z,60.35
2019-02-25T03:57:58.309Z,60.35
2019-02-25T03:58:58.309Z,60.73
2019-02-25T03:59:58.275Z,61.01
2019-02-25T04:00:58.244Z,61.49
2019-02-25T04:01:58.227Z,62.43
2019-02-25T04:02:58.208Z,62.43
2019-02-25T04:03:58.199Z,63.10
2019-02-25T04:04:58.193Z,62.53
2019-02-25T04:05:58.142Z,63.10
2019-02-25T04:06:58.123Z,63.39
2019-02-25T04:07:58.101Z,63.29
2019-02-25T04:08:58.079Z,63.48
2019-02-25T04:09:58.075Z,63.01
2019-02-25T04:10:58.039Z,63.20
2019-02-25T04:11:58.019Z,62.72
2019-02-25T04:12:58.010Z,62.15
2019-02-25T04:13:57.976Z,62.24
2019-02-25T04:14:57.985Z,61.30
2019-02-25T04:15:57.936Z,62.24
2019-02-25T04:16:57.913Z,61.68
2019-02-25T04:17:57.892Z,62.34
2019-02-25T04:18:58.688Z,61.20
2019-02-25T04:19:57.851Z,60.92
2019-02-25T04:20:57.860Z,61.20
2019-02-25T04:21:57.806Z,60.73
2019-02-25T04:22:57.787Z,59.40
2019-02-25T04:23:57.773Z,58.45
2019-02-25T04:24:57.746Z,58.54
2019-02-25T04:25:57.731Z,57.62
2019-02-25T04:26:57.722Z,56.49
2019-02-25T04:27:57.683Z,55.54
2019-02-25T04:28:57.663Z,55.16
2019-02-25T04:29:57.644Z,54.78
2019-02-25T04:30:57.616Z,54.90
2019-02-25T04:31:57.600Z,54.71
2019-02-25T04:32:57.594Z,54.90
2019-02-25T04:33:57.563Z,55.06
2019-02-25T04:34:57.536Z,55.25
2019-02-25T04:35:57.517Z,55.25
2019-02-25T04:36:57.494Z,56.96
2019-02-25T04:37:57.479Z,56.96
2019-02-25T04:38:57.476Z,56.87
2019-02-25T04:39:57.436Z,57.62
2019-02-25T04:40:57.424Z,56.96
2019-02-25T04:41:57.393Z,57.72
2019-02-25T04:42:57.394Z,58.20
2019-02-25T04:43:57.350Z,58.64
2019-02-25T04:44:57.334Z,58.92
2019-02-25T04:45:57.311Z,59.40
2019-02-25T04:46:57.285Z,59.40
2019-02-25T04:47:57.264Z,60.35
2019-02-25T04:48:57.265Z,61.11
2019-02-25T04:49:57.226Z,60.35
2019-02-25T04:50:58.194Z,60.25
2019-02-25T04:51:57.183Z,59.97
2019-02-25T04:52:58.149Z,60.06
2019-02-25T04:53:57.143Z,60.53
2019-02-25T04:54:57.134Z,60.44
2019-02-25T04:55:57.111Z,60.44
2019-02-25T04:56:57.078Z,59.97
2019-02-25T04:57:57.058Z,60.53
2019-02-25T04:58:57.035Z,60.25
2019-02-25T04:59:57.010Z,60.53
2019-02-25T05:00:57.012Z,60.53
2019-02-25T05:01:56.990Z,60.25
2019-02-25T05:02:56.952Z,60.53
2019-02-25T05:03:56.927Z,59.68
2019-02-25T05:04:56.926Z,60.63
2019-02-25T05:05:56.885Z,60.16
2019-02-25T05:06:57.652Z,59.97
2019-02-25T05:07:56.899Z,59.88
2019-02-25T05:08:56.823Z,59.21
2019-02-25T05:09:56.800Z,59.02
2019-02-25T05:10:56.778Z,58.64
2019-02-25T05:11:56.758Z,59.40
2019-02-25T05:12:56.747Z,59.21
2019-02-25T05:13:56.737Z,59.30
2019-02-25T05:14:56.703Z,59.30
2019-02-25T05:15:56.696Z,59.40
2019-02-25T05:16:57.655Z,59.40
2019-02-25T05:17:56.636Z,59.21
2019-02-25T05:18:56.633Z,58.36
2019-02-25T05:19:56.591Z,57.98
2019-02-25T05:20:56.588Z,57.24
2019-02-25T05:21:56.546Z,56.96
2019-02-25T05:22:56.540Z,56.49
2019-02-25T05:23:56.506Z,56.39
2019-02-25T05:24:56.483Z,56.87
2019-02-25T05:25:56.463Z,56.20
2019-02-25T05:26:56.458Z,56.20
2019-02-25T05:27:56.435Z,56.20
2019-02-25T05:28:56.414Z,56.29
2019-02-25T05:29:56.411Z,56.20
2019-02-25T05:30:56.353Z,55.91
2019-02-25T05:31:56.340Z,56.10
2019-02-25T05:32:56.318Z,56.10
2019-02-25T05:33:56.297Z,56.10
2019-02-25T05:34:56.279Z,55.63
2019-02-25T05:35:56.273Z,55.44
2019-02-25T05:36:57.156Z,54.87
2019-02-25T05:37:56.214Z,54.39
2019-02-25T05:38:56.191Z,54.78
2019-02-25T05:39:56.177Z,55.16
2019-02-25T05:40:56.149Z,55.63
2019-02-25T05:41:56.146Z,56.39
2019-02-25T05:42:56.122Z,56.10
2019-02-25T05:43:56.119Z,56.29
2019-02-25T05:44:56.071Z,56.01
2019-02-25T05:45:56.045Z,56.10
2019-02-25T05:46:56.043Z,56.20
2019-02-25T05:47:56.054Z,56.39
2019-02-25T05:48:55.990Z,56.29
2019-02-25T05:49:55.956Z,56.20
2019-02-25T05:50:56.063Z,56.39
2019-02-25T05:51:56.045Z,56.10
2019-02-25T05:52:55.924Z,56.10
2019-02-25T05:53:55.892Z,56.49
2019-02-25T05:54:55.857Z,56.20
2019-02-25T05:55:55.832Z,56.10
2019-02-25T05:56:55.811Z,56.29
2019-02-25T05:57:55.800Z,56.49
2019-02-25T05:58:55.786Z,56.20
2019-02-25T05:59:55.749Z,56.29
2019-02-25T06:00:55.726Z,56.39
2019-02-25T06:01:55.706Z,56.29
2019-02-25T06:02:55.682Z,56.29
2019-02-25T06:03:55.665Z,56.29
2019-02-25T06:04:55.667Z,56.39
2019-02-25T06:05:55.639Z,57.24
2019-02-25T06:06:55.602Z,56.77
2019-02-25T06:07:55.578Z,57.24
2019-02-25T06:08:55.558Z,57.34
2019-02-25T06:09:55.561Z,57.34
2019-02-25T06:10:55.537Z,57.79
2019-02-25T06:11:55.515Z,57.34
2019-02-25T06:12:55.477Z,57.15
2019-02-25T06:13:55.460Z,58.00
2019-02-25T06:14:55.450Z,57.88
2019-02-25T06:15:55.409Z,57.98
2019-02-25T06:16:55.395Z,57.88
2019-02-25T06:17:55.366Z,58.36
2019-02-25T06:18:55.356Z,58.36
2019-02-25T06:19:55.348Z,59.11
2019-02-25T06:20:55.304Z,58.45
2019-02-25T06:21:55.290Z,58.64
2019-02-25T06:22:55.262Z,59.11
2019-02-25T06:23:55.239Z,59.30
2019-02-25T06:24:55.231Z,59.21
2019-02-25T06:25:55.224Z,59.40
2019-02-25T06:26:55.182Z,59.49
2019-02-25T06:27:55.173Z,60.16
2019-02-25T06:28:55.137Z,61.01
2019-02-25T06:29:55.114Z,60.53
2019-02-25T06:30:55.095Z,60.73
2019-02-25T06:31:55.069Z,60.44
2019-02-25T06:32:55.055Z,61.01
2019-02-25T06:33:55.043Z,61.68
2019-02-25T06:34:55.009Z,61.39
2019-02-25T06:35:54.994Z,61.96
2019-02-25T06:36:54.993Z,62.91
2019-02-25T06:37:54.951Z,62.40
2019-02-25T06:38:54.923Z,62.31
2019-02-25T06:39:54.899Z,62.31
2019-02-25T06:40:54.902Z,61.74
2019-02-25T06:41:54.858Z,62.69
2019-02-25T06:42:54.839Z,61.96
2019-02-25T06:43:54.837Z,61.49
2019-02-25T06:44:54.798Z,61.11
2019-02-25T06:45:54.776Z,60.63
2019-02-25T06:46:54.769Z,60.73
2019-02-25T06:47:55.740Z,59.97
2019-02-25T06:48:54.725Z,59.49
2019-02-25T06:49:54.682Z,59.62
2019-02-25T06:50:54.665Z,59.43
2019-02-25T06:51:54.644Z,59.62
2019-02-25T06:52:54.621Z,59.33
2019-02-25T06:53:54.604Z,58.29
2019-02-25T06:54:54.601Z,58.39
2019-02-25T06:55:54.568Z,58.29
2019-02-25T06:56:54.537Z,57.81
2019-02-25T06:57:54.523Z,58.10
2019-02-25T06:58:54.496Z,58.67
2019-02-25T06:59:54.493Z,57.53
2019-02-25T07:00:54.463Z,57.72
2019-02-25T07:01:54.433Z,56.77
2019-02-25T07:02:54.409Z,56.77
2019-02-25T07:03:54.387Z,57.06
2019-02-25T07:04:54.401Z,57.15
2019-02-25T07:05:54.382Z,57.15
2019-02-25T07:06:54.324Z,57.15
2019-02-25T07:07:54.305Z,57.18
2019-02-25T07:08:54.282Z,56.51
2019-02-25T07:09:54.261Z,56.51
2019-02-25T07:10:54.241Z,56.23
2019-02-25T07:11:54.245Z,56.89
2019-02-25T07:12:54.208Z,57.18
2019-02-25T07:13:54.182Z,56.99
2019-02-25T07:14:54.166Z,57.09
2019-02-25T07:15:54.139Z,56.32
2019-02-25T07:16:54.149Z,55.76
2019-02-25T07:17:54.095Z,56.32
2019-02-25T07:18:54.069Z,55.94
2019-02-25T07:19:54.051Z,55.94
2019-02-25T07:20:54.031Z,55.94
2019-02-25T07:21:54.011Z,56.32
2019-02-25T07:22:54.008Z,55.85
2019-02-25T07:23:53.968Z,55.47
2019-02-25T07:24:53.949Z,55.28
2019-02-25T07:25:53.920Z,55.37
2019-02-25T07:26:53.904Z,55.21
2019-02-25T07:27:53.899Z,55.09
2019-02-25T07:28:53.870Z,55.30
2019-02-25T07:29:53.839Z,55.37
2019-02-25T07:30:53.821Z,55.37
2019-02-25T07:31:53.799Z,55.30
2019-02-25T07:32:53.805Z,55.47
2019-02-25T07:33:53.761Z,55.66
2019-02-25T07:34:53.737Z,55.94
2019-02-25T07:35:53.720Z,55.85
2019-02-25T07:36:53.708Z,56.04
2019-02-25T07:37:53.672Z,55.76
2019-02-25T07:38:53.680Z,55.76
2019-02-25T07:39:53.632Z,55.76
2019-02-25T07:40:53.613Z,56.51
2019-02-25T07:41:54.219Z,56.04
2019-02-25T07:42:53.571Z,56.13
2019-02-25T07:43:53.541Z,56.35
2019-02-25T07:44:53.579Z,56.23
2019-02-25T07:45:53.500Z,56.35
2019-02-25T07:46:53.484Z,56.26
2019-02-25T07:47:53.465Z,56.16
2019-02-25T07:48:53.445Z,56.16
2019-02-25T07:49:53.418Z,56.45
2019-02-25T07:50:53.415Z,56.63
2019-02-25T07:51:53.377Z,56.16
2019-02-25T07:52:55.172Z,56.35
2019-02-25T07:53:53.339Z,56.45
2019-02-25T07:54:53.344Z,56.26
2019-02-25T07:56:01.953Z,56.45
2019-02-25T07:56:53.284Z,55.78
2019-02-25T07:57:53.248Z,55.97
2019-02-25T07:58:53.243Z,56.07
2019-02-25T07:59:53.212Z,56.26
2019-02-25T08:00:53.208Z,56.38
2019-02-25T08:01:53.178Z,56.00
2019-02-25T08:02:53.162Z,55.43
2019-02-25T08:03:53.131Z,54.48
2019-02-25T08:04:53.114Z,54.29
2019-02-25T08:05:53.091Z,53.91
2019-02-25T08:06:53.082Z,53.81
2019-02-25T08:07:53.083Z,53.34
2019-02-25T08:08:53.040Z,53.17
2019-02-25T08:09:53.012Z,52.32
2019-02-25T08:10:52.995Z,52.61
2019-02-25T08:11:52.967Z,53.08
2019-02-25T08:12:52.943Z,52.13
2019-02-25T08:13:52.943Z,51.93
2019-02-25T08:14:52.907Z,51.93
2019-02-25T08:15:52.886Z,51.93
2019-02-25T08:16:52.864Z,51.75
2019-02-25T08:17:52.839Z,51.18
2019-02-25T08:18:52.820Z,50.51
2019-02-25T08:19:52.831Z,50.60
2019-02-25T08:20:52.794Z,51.27
2019-02-25T08:21:52.755Z,51.27
2019-02-25T08:22:52.736Z,51.20
2019-02-25T08:23:52.716Z,51.01
2019-02-25T08:24:52.708Z,50.54
2019-02-25T08:25:52.677Z,50.44
2019-02-25T08:26:52.653Z,50.25
2019-02-25T08:27:52.637Z,49.96
2019-02-25T08:28:52.619Z,49.96
2019-02-25T08:29:52.615Z,50.06
2019-02-25T08:30:52.578Z,49.96
2019-02-25T08:31:52.557Z,50.06
2019-02-25T08:32:52.534Z,50.25
2019-02-25T08:33:52.512Z,50.37
2019-02-25T08:34:52.503Z,50.06
2019-02-25T08:35:52.493Z,50.27
2019-02-25T08:37:01.802Z,51.14
2019-02-25T08:37:52.432Z,50.66
2019-02-25T08:38:52.417Z,49.99
2019-02-25T08:39:52.395Z,50.66
2019-02-25T08:40:52.377Z,50.27
2019-02-25T08:41:52.383Z,50.09
2019-02-25T08:42:52.342Z,50.18
2019-02-25T08:43:52.315Z,50.27
2019-02-25T08:44:52.295Z,50.18
2019-02-25T08:45:52.278Z,49.90
2019-02-25T08:46:52.255Z,50.37
2019-02-25T08:47:52.250Z,49.99
2019-02-25T08:48:52.215Z,50.09
2019-02-25T08:49:52.213Z,49.63
2019-02-25T08:50:52.187Z,49.54
2019-02-25T08:51:52.157Z,49.44
2019-02-25T08:52:52.155Z,49.73
2019-02-25T08:53:52.113Z,49.73
2019-02-25T08:54:52.096Z,49.54
2019-02-25T08:55:52.074Z,48.78
2019-02-25T08:56:52.060Z,48.87
2019-02-25T08:57:52.065Z,47.75
2019-02-25T08:58:52.018Z,47.94
2019-02-25T08:59:52.000Z,47.56
2019-02-25T09:00:51.983Z,47.37
2019-02-25T09:01:51.957Z,46.89
2019-02-25T09:02:51.946Z,46.51
2019-02-25T09:03:51.945Z,46.61
2019-02-25T09:04:51.898Z,46.63
2019-02-25T09:05:51.882Z,46.15
2019-02-25T09:06:51.862Z,46.25
2019-02-25T09:07:51.866Z,45.68
2019-02-25T09:08:51.822Z,45.49
2019-02-25T09:09:51.821Z,45.78
2019-02-25T09:10:51.784Z,44.73
2019-02-25T09:11:51.765Z,44.63
2019-02-25T09:12:51.751Z,44.73
2019-02-25T09:13:51.725Z,44.44
2019-02-25T09:14:51.728Z,43.70
2019-02-25T09:15:51.698Z,43.41
2019-02-25T09:16:51.671Z,42.08
2019-02-25T09:17:51.652Z,41.88
2019-02-25T09:18:51.633Z,41.50
2019-02-25T09:19:51.622Z,40.45
2019-02-25T09:20:51.648Z,40.36
2019-02-25T09:21:51.602Z,39.23
2019-02-25T09:22:51.565Z,39.23
2019-02-25T09:23:51.534Z,39.61
2019-02-25T09:24:51.519Z,39.42
2019-02-25T09:25:51.510Z,39.52
2019-02-25T09:26:51.475Z,39.04
2019-02-25T09:27:51.487Z,38.76
2019-02-25T09:28:51.438Z,38.37
2019-02-25T09:29:51.422Z,37.99
2019-02-25T09:30:51.410Z,38.56
2019-02-25T09:31:51.381Z,38.47
2019-02-25T09:32:51.369Z,38.66
2019-02-25T09:33:51.377Z,38.96
2019-02-25T09:34:51.341Z,39.90
2019-02-25T09:35:51.314Z,39.61
2019-02-25T09:36:51.296Z,39.35
2019-02-25T09:37:51.272Z,39.14
2019-02-25T09:38:51.278Z,39.25
2019-02-25T09:39:52.004Z,40.11
2019-02-25T09:40:51.231Z,40.11
2019-02-25T09:41:51.200Z,40.11
2019-02-25T09:42:51.181Z,40.11
2019-02-25T09:43:51.179Z,38.78
2019-02-25T09:44:51.144Z,37.73
2019-02-25T09:45:51.121Z,37.82
2019-02-25T09:46:51.105Z,37.15
2019-02-25T09:47:51.087Z,37.05
2019-02-25T09:48:51.072Z,37.26
2019-02-25T09:49:51.171Z,37.05
2019-02-25T09:50:51.050Z,37.26
2019-02-25T09:51:51.012Z,38.51
2019-02-25T09:52:50.995Z,39.06
2019-02-25T09:53:50.975Z,40.30
2019-02-25T09:54:50.965Z,41.55
2019-02-25T09:55:50.954Z,41.93
2019-02-25T09:56:50.921Z,42.02
2019-02-25T09:57:50.921Z,41.83
2019-02-25T09:58:51.971Z,41.35
2019-02-25T09:59:50.869Z,41.16
2019-02-25T10:00:50.860Z,41.38
2019-02-25T10:01:50.846Z,41.55
2019-02-25T10:02:50.828Z,41.45
2019-02-25T10:03:50.794Z,41.64
2019-02-25T10:04:50.906Z,41.35
2019-02-25T10:05:50.773Z,40.78
2019-02-25T10:06:50.757Z,40.59
2019-02-25T10:07:50.720Z,40.49
2019-02-25T10:08:50.703Z,41.06
2019-02-25T10:09:50.687Z,40.88
2019-02-25T10:10:50.688Z,40.30
2019-02-25T10:11:50.648Z,40.42
2019-02-25T10:12:50.692Z,40.52
2019-02-25T10:13:51.942Z,40.40
2019-02-25T10:14:50.594Z,40.20
2019-02-25T10:15:50.624Z,40.11
2019-02-25T10:16:50.572Z,40.01
2019-02-25T10:17:50.541Z,40.03
2019-02-25T10:18:50.545Z,39.64
2019-02-25T10:19:50.504Z,39.94
2019-02-25T10:20:50.485Z,39.65
2019-02-25T10:21:50.490Z,39.75
2019-02-25T10:22:50.468Z,39.37
2019-02-25T10:23:50.466Z,39.18
2019-02-25T10:24:50.416Z,40.15
2019-02-25T10:25:50.403Z,39.48
2019-02-25T10:26:50.379Z,39.00
2019-02-25T10:27:50.481Z,38.81
2019-02-25T10:28:50.362Z,38.81
2019-02-25T10:29:50.336Z,38.43
2019-02-25T10:30:52.772Z,38.62
2019-02-25T10:31:50.305Z,38.62
2019-02-25T10:32:50.295Z,38.71
2019-02-25T10:33:50.858Z,38.91
2019-02-25T10:34:50.248Z,38.53
2019-02-25T10:35:50.222Z,38.81
2019-02-25T10:36:51.924Z,38.62
2019-02-25T10:37:50.202Z,38.53
2019-02-25T10:38:50.190Z,38.53
2019-02-25T10:39:51.469Z,38.45
2019-02-25T10:40:52.129Z,38.54
2019-02-25T10:41:51.165Z,37.97
2019-02-25T10:42:50.119Z,37.88
2019-02-25T10:43:50.111Z,38.07
2019-02-25T10:44:50.093Z,38.07
2019-02-25T10:45:50.054Z,37.68
2019-02-25T10:46:50.044Z,37.78
2019-02-25T10:47:51.646Z,37.49
2019-02-25T10:48:54.208Z,37.21
2019-02-25T10:49:49.991Z,37.30
2019-02-25T10:50:56.081Z,36.35
2019-02-25T10:51:49.961Z,36.36
2019-02-25T10:52:49.951Z,36.36
2019-02-25T10:53:51.648Z,36.65
2019-02-25T10:54:51.843Z,37.05
2019-02-25T10:55:50.867Z,36.27
2019-02-25T10:56:51.537Z,37.05
2019-02-25T10:57:49.862Z,36.19
2019-02-25T10:58:49.845Z,36.29
2019-02-25T10:59:49.853Z,36.38
2019-02-25T11:00:49.834Z,36.47
2019-02-25T11:01:49.802Z,36.29
2019-02-25T11:02:51.169Z,36.47
2019-02-25T11:03:50.375Z,36.86
2019-02-25T11:04:51.345Z,36.88
2019-02-25T11:05:51.594Z,36.02
2019-02-25T11:06:49.729Z,36.29
2019-02-25T11:07:49.734Z,35.90
2019-02-25T11:08:49.709Z,35.53
2019-02-25T11:09:50.360Z,35.92
2019-02-25T11:10:50.795Z,36.30
2019-02-25T11:11:50.684Z,36.24
2019-02-25T11:12:49.658Z,35.11
2019-02-25T11:13:49.635Z,34.73
2019-02-25T11:14:49.622Z,34.36
2019-02-25T11:15:49.619Z,33.70
2019-02-25T11:16:50.580Z,32.82
2019-02-25T11:17:50.186Z,32.71
2019-02-25T11:18:50.639Z,33.19
2019-02-25T11:19:49.557Z,33.78
2019-02-25T11:20:49.546Z,33.61
2019-02-25T11:21:49.552Z,33.23
2019-02-25T11:22:49.539Z,32.95
2019-02-25T11:23:51.157Z,32.86
2019-02-25T11:24:51.350Z,32.76
2019-02-25T11:25:49.480Z,32.93
2019-02-25T11:26:49.472Z,33.32
2019-02-25T11:27:49.472Z,33.51
2019-02-25T11:28:49.451Z,33.34
2019-02-25T11:29:49.446Z,33.34
2019-02-25T11:30:51.416Z,33.44
2019-02-25T11:31:51.068Z,33.45
2019-02-25T11:32:51.141Z,32.97
2019-02-25T11:33:49.390Z,32.49
2019-02-25T11:34:49.365Z,33.74
2019-02-25T11:35:49.353Z,33.54
2019-02-25T11:36:50.860Z,33.42
2019-02-25T11:37:50.100Z,34.36
2019-02-25T11:38:49.328Z,35.43
2019-02-25T11:39:49.303Z,34.49
2019-02-25T11:40:49.290Z,34.01
2019-02-25T11:41:49.271Z,34.27
2019-02-25T11:42:49.269Z,34.73
2019-02-25T11:43:50.986Z,36.18
2019-02-25T11:44:49.275Z,36.40
2019-02-25T11:45:49.226Z,35.24
2019-02-25T11:46:49.215Z,34.76
2019-02-25T11:47:49.207Z,34.57
2019-02-25T11:48:49.212Z,34.59
2019-02-25T11:49:50.810Z,34.41
2019-02-25T11:50:49.168Z,34.41
2019-02-25T11:51:49.155Z,34.53
2019-02-25T11:52:49.150Z,34.41
2019-02-25T11:53:49.147Z,34.61
2019-02-25T11:54:49.134Z,34.61
2019-02-25T11:55:49.110Z,34.80
2019-02-25T11:56:49.090Z,34.67
2019-02-25T11:57:49.083Z,35.03
2019-02-25T11:58:49.076Z,36.38
2019-02-25T11:59:49.079Z,36.55
2019-02-25T12:00:49.048Z,36.26
2019-02-25T12:01:49.040Z,36.84
2019-02-25T12:02:49.024Z,36.84
2019-02-25T12:03:49.032Z,37.43
2019-02-25T12:04:49.003Z,37.15
2019-02-25T12:05:49.010Z,37.32
2019-02-25T12:06:48.974Z,37.15
2019-02-25T12:07:48.970Z,37.82
2019-02-25T12:08:48.962Z,37.74
2019-02-25T12:09:48.942Z,37.47
2019-02-25T12:10:48.950Z,36.40
2019-02-25T12:11:48.958Z,36.97
2019-02-25T12:12:48.908Z,37.55
2019-02-25T12:13:48.923Z,37.55
2019-02-25T12:14:48.889Z,37.16
2019-02-25T12:15:48.919Z,37.35
2019-02-25T12:16:48.869Z,37.45
2019-02-25T12:17:48.885Z,37.26
2019-02-25T12:18:48.857Z,37.26
2019-02-25T12:19:48.841Z,37.53
2019-02-25T12:20:48.828Z,37.82
2019-02-25T12:21:48.832Z,38.29
2019-02-25T12:22:48.806Z,38.59
2019-02-25T12:23:48.810Z,38.60
2019-02-25T12:24:48.802Z,37.55
2019-02-25T12:25:48.780Z,37.62
2019-02-25T12:26:48.768Z,37.62
2019-02-25T12:27:48.766Z,38.49
2019-02-25T12:28:48.744Z,39.37
2019-02-25T12:29:48.728Z,39.28
2019-02-25T12:30:48.725Z,38.78
2019-02-25T12:31:48.712Z,37.91
2019-02-25T12:32:48.731Z,37.53
2019-02-25T12:33:48.694Z,37.74
2019-02-25T12:34:48.684Z,37.53
2019-02-25T12:35:48.667Z,37.74
2019-02-25T12:36:48.656Z,37.35
2019-02-25T12:37:48.641Z,37.55
2019-02-25T12:38:48.658Z,37.26
2019-02-25T12:39:48.644Z,37.45
2019-02-25T12:40:48.615Z,37.64
2019-02-25T12:41:48.606Z,37.64
2019-02-25T12:42:48.594Z,38.07
2019-02-25T12:43:48.581Z,36.35
2019-02-25T12:44:48.573Z,35.58
2019-02-25T12:45:48.575Z,36.07
2019-02-25T12:46:48.569Z,36.41
2019-02-25T12:47:48.624Z,36.60
2019-02-25T12:48:48.639Z,37.26
2019-02-25T12:49:48.621Z,37.07
2019-02-25T12:50:48.562Z,37.64
2019-02-25T12:51:48.639Z,37.76